San Diego, California
Traffic Map
Current Weather Conditions
San Diego, California
Scattered Clouds
Scattered Clouds
21°
Feels Like: 21°
Wind Chill: 21° Ceiling: Unl
Heat Index: 21° Visibility: 10mi
Dew Point: 13° Wind: 10mph
Humidity: 59% Direction: 310° (NW)
Pressure: 30.05in Gusts: 0mph
Raw Report DataKSAN 232151Z 31009KT 10SM SCT250 21/13 A3005 RMK AO2 SLP177 T02110128
Traffic Incident Summary
Active as of:
Severity:
Category:
InformationThere was an issue retrieving the traffic information for this location. Please try a different location or try again shortly.
Advertisements
Track Severe Weather on mobile